createdAt,value
2022-09-03T00:00:07.073Z,1.08
2022-09-03T00:02:37.931Z,0.98
2022-09-03T00:05:08.028Z,1.17
2022-09-03T00:07:38.090Z,1.17
2022-09-03T00:10:11.382Z,0.85
2022-09-03T00:12:44.266Z,1.15
2022-09-03T00:15:13.408Z,1.15
2022-09-03T00:17:42.263Z,1.10
2022-09-03T00:20:13.524Z,1.48
2022-09-03T00:22:42.808Z,1.17
2022-09-03T00:25:14.559Z,0.93
2022-09-03T00:27:44.369Z,0.98
2022-09-03T00:30:14.963Z,1.05
2022-09-03T00:32:47.753Z,1.02
2022-09-03T00:35:18.001Z,1.27
2022-09-03T00:37:45.637Z,1.20
2022-09-03T00:40:19.984Z,1.02
2022-09-03T00:42:53.444Z,0.70
2022-09-03T00:45:26.544Z,1.40
2022-09-03T00:48:01.490Z,1.30
2022-09-03T00:50:33.540Z,1.05
2022-09-03T00:53:04.216Z,1.48
2022-09-03T00:55:38.556Z,1.10
2022-09-03T00:58:15.079Z,1.20
2022-09-03T01:00:43.639Z,0.98
2022-09-03T01:03:13.327Z,1.52
2022-09-03T01:05:48.360Z,1.30
2022-09-03T01:08:22.459Z,1.25
2022-09-03T01:10:56.225Z,1.08
2022-09-03T01:13:27.654Z,1.20
2022-09-03T01:16:02.368Z,1.33
2022-09-03T01:18:36.139Z,1.27
2022-09-03T01:21:14.586Z,1.10
2022-09-03T01:23:54.710Z,1.23
2022-09-03T01:26:40.204Z,1.30
2022-09-03T01:29:14.884Z,1.35
2022-09-03T01:31:47.236Z,1.17
2022-09-03T01:34:19.184Z,1.48
2022-09-03T01:36:50.939Z,1.23
2022-09-03T01:39:22.023Z,1.05
2022-09-03T01:42:20.497Z,1.20
2022-09-03T01:44:58.319Z,0.95
2022-09-03T01:47:33.813Z,1.30
2022-09-03T01:50:05.792Z,1.20
2022-09-03T01:52:44.691Z,1.40
2022-09-03T01:55:18.059Z,1.50
2022-09-03T01:57:51.812Z,1.42
2022-09-03T02:00:21.290Z,1.48
2022-09-03T02:02:51.450Z,1.20
2022-09-03T02:05:20.569Z,1.20
2022-09-03T02:07:49.086Z,1.35
2022-09-03T02:10:18.233Z,1.15
2022-09-03T02:12:47.678Z,1.58
2022-09-03T02:15:16.825Z,1.58
2022-09-03T02:17:49.716Z,2.35
2022-09-03T02:20:20.740Z,1.42
2022-09-03T02:22:49.273Z,1.30
2022-09-03T02:25:17.321Z,1.17
2022-09-03T02:27:45.662Z,1.42
2022-09-03T02:30:13.544Z,1.45
2022-09-03T02:32:41.284Z,1.85
2022-09-03T02:35:11.059Z,1.42
2022-09-03T02:37:41.006Z,1.40
2022-09-03T02:40:10.367Z,1.25
2022-09-03T02:42:38.238Z,1.33
2022-09-03T02:45:12.266Z,1.60
2022-09-03T02:47:41.857Z,1.30
2022-09-03T02:50:11.521Z,1.13
2022-09-03T02:52:39.173Z,1.50
2022-09-03T02:55:08.152Z,1.15
2022-09-03T02:57:35.828Z,1.30
2022-09-03T03:00:03.997Z,1.45
2022-09-03T03:02:31.711Z,1.95
2022-09-03T03:04:59.389Z,1.45
2022-09-03T03:07:29.034Z,1.20
2022-09-03T03:09:56.737Z,1.38
2022-09-03T03:12:26.625Z,1.23
2022-09-03T03:14:54.318Z,1.40
2022-09-03T03:17:21.967Z,1.40
2022-09-03T03:19:50.090Z,1.70
2022-09-03T03:22:17.758Z,1.40
2022-09-03T03:24:46.792Z,1.25
2022-09-03T03:27:14.912Z,1.30
2022-09-03T03:29:42.613Z,1.83
2022-09-03T03:32:10.275Z,1.35
2022-09-03T03:34:38.488Z,1.35
2022-09-03T03:37:06.082Z,1.60
2022-09-03T03:39:33.718Z,1.38
2022-09-03T03:42:02.812Z,1.20
2022-09-03T03:44:30.739Z,1.35
2022-09-03T03:46:58.380Z,1.70
2022-09-03T03:49:26.065Z,1.42
2022-09-03T03:51:53.669Z,1.67
2022-09-03T03:54:22.484Z,1.40
2022-09-03T03:56:55.390Z,1.13
2022-09-03T03:59:24.940Z,1.58
2022-09-03T04:01:53.048Z,1.67
2022-09-03T04:04:20.661Z,1.50
2022-09-03T04:06:48.291Z,1.60
2022-09-03T04:09:16.005Z,1.42
2022-09-03T04:11:43.653Z,1.10
2022-09-03T04:14:11.705Z,1.23
2022-09-03T04:16:40.733Z,1.40
2022-09-03T04:19:08.502Z,1.42
2022-09-03T04:21:36.745Z,1.40
2022-09-03T04:24:05.556Z,1.60
2022-09-03T04:26:34.004Z,1.73
2022-09-03T04:29:03.053Z,1.23
2022-09-03T04:31:30.741Z,1.25
2022-09-03T04:34:00.885Z,1.50
2022-09-03T04:36:29.346Z,1.40
2022-09-03T04:38:59.151Z,1.20
2022-09-03T04:41:27.988Z,1.60
2022-09-03T04:43:56.476Z,1.58
2022-09-03T04:46:26.068Z,1.42
2022-09-03T04:48:55.047Z,1.30
2022-09-03T04:51:25.369Z,1.20
2022-09-03T04:53:55.022Z,1.27
2022-09-03T04:56:23.744Z,1.52
2022-09-03T04:58:55.389Z,1.35
2022-09-03T05:01:24.187Z,1.40
2022-09-03T05:03:52.317Z,1.38
2022-09-03T05:06:20.068Z,1.60
2022-09-03T05:08:50.488Z,1.38
2022-09-03T05:11:18.742Z,1.45
2022-09-03T05:13:48.552Z,1.05
2022-09-03T05:16:16.472Z,1.67
2022-09-03T05:18:45.035Z,1.55
2022-09-03T05:21:13.208Z,1.40
2022-09-03T05:23:42.573Z,1.55
2022-09-03T05:26:12.577Z,1.75
2022-09-03T05:28:41.563Z,1.52
2022-09-03T05:31:10.033Z,1.55
2022-09-03T05:33:38.178Z,1.30
2022-09-03T05:36:06.888Z,1.40
2022-09-03T05:38:34.588Z,1.27
2022-09-03T05:41:02.225Z,1.27
2022-09-03T05:43:31.857Z,1.63
2022-09-03T05:46:00.731Z,1.52
2022-09-03T05:48:28.756Z,1.55
2022-09-03T05:51:03.176Z,1.40
2022-09-03T05:53:31.165Z,0.98
2022-09-03T05:55:59.052Z,1.30
2022-09-03T05:58:26.903Z,1.08
2022-09-03T06:00:55.920Z,1.13
2022-09-03T06:03:23.737Z,1.13
2022-09-03T06:05:52.600Z,1.05
2022-09-03T06:08:20.218Z,1.33
2022-09-03T06:10:48.143Z,1.30
2022-09-03T06:13:15.822Z,1.45
2022-09-03T06:15:43.548Z,1.48
2022-09-03T06:18:12.532Z,1.67
2022-09-03T06:20:40.163Z,1.60
2022-09-03T06:23:07.823Z,1.38
2022-09-03T06:25:35.552Z,1.60
2022-09-03T06:28:04.143Z,1.23
2022-09-03T06:30:31.840Z,1.50
2022-09-03T06:32:59.492Z,2.03
2022-09-03T06:35:28.493Z,1.38
2022-09-03T06:37:57.214Z,1.40
2022-09-03T06:40:26.253Z,1.50
2022-09-03T06:42:59.257Z,1.38
2022-09-03T06:45:26.905Z,1.60
2022-09-03T06:47:55.069Z,1.40
2022-09-03T06:50:22.810Z,1.40
2022-09-03T06:52:55.069Z,2.10
2022-09-03T06:55:22.858Z,1.42
2022-09-03T06:57:52.937Z,1.70
2022-09-03T07:00:21.768Z,1.67
2022-09-03T07:02:49.770Z,1.70
2022-09-03T07:05:17.426Z,1.55
2022-09-03T07:07:46.240Z,1.30
2022-09-03T07:10:16.212Z,1.80
2022-09-03T07:12:43.876Z,2.42
2022-09-03T07:15:12.402Z,1.63
2022-09-03T07:17:40.396Z,1.92
2022-09-03T07:20:08.489Z,1.70
2022-09-03T07:22:37.059Z,1.58
2022-09-03T07:25:05.055Z,1.27
2022-09-03T07:27:35.556Z,1.67
2022-09-03T07:30:03.749Z,1.30
2022-09-03T07:32:31.417Z,0.43
2022-09-03T07:34:59.016Z,0.40
2022-09-03T07:37:26.673Z,1.08
2022-09-03T07:39:54.423Z,1.60
2022-09-03T07:42:22.116Z,0.63
2022-09-03T07:44:51.079Z,0.28
2022-09-03T07:47:23.301Z,0.50
2022-09-03T07:49:54.800Z,0.43
2022-09-03T07:52:23.014Z,0.50
2022-09-03T07:54:50.629Z,0.65
2022-09-03T07:57:18.253Z,0.90
2022-09-03T07:59:45.980Z,1.45
2022-09-03T08:02:14.984Z,0.95
2022-09-03T08:04:43.533Z,0.85
2022-09-03T08:07:11.185Z,1.38
2022-09-03T08:09:38.825Z,0.60
2022-09-03T08:12:06.794Z,0.70
2022-09-03T08:14:34.437Z,0.50
2022-09-03T08:17:02.035Z,0.82
2022-09-03T08:19:31.061Z,0.73
2022-09-03T08:21:58.718Z,1.13
2022-09-03T08:24:26.467Z,0.82
2022-09-03T08:26:54.124Z,1.20
2022-09-03T08:29:22.206Z,1.17
2022-09-03T08:31:50.276Z,1.38
2022-09-03T08:34:18.265Z,1.52
2022-09-03T08:36:47.674Z,1.77
2022-09-03T08:39:15.374Z,0.88
2022-09-03T08:41:55.034Z,0.93
2022-09-03T08:44:24.842Z,0.45
2022-09-03T08:46:54.618Z,0.40
2022-09-03T08:49:25.357Z,1.05
2022-09-03T08:51:55.863Z,0.63
2022-09-03T08:54:25.167Z,1.70
2022-09-03T08:56:53.072Z,1.20
2022-09-03T08:59:22.121Z,1.77
2022-09-03T09:01:58.119Z,1.20
2022-09-03T09:04:32.039Z,1.40
2022-09-03T09:07:05.856Z,1.35
2022-09-03T09:09:36.535Z,1.90
2022-09-03T09:12:11.617Z,1.23
2022-09-03T09:14:47.990Z,1.50
2022-09-03T09:17:23.736Z,2.33
2022-09-03T09:19:57.778Z,1.83
2022-09-03T09:22:30.166Z,1.70
2022-09-03T09:24:59.534Z,1.67
2022-09-03T09:27:27.233Z,1.73
2022-09-03T09:29:56.191Z,1.90
2022-09-03T09:32:23.822Z,1.45
2022-09-03T09:34:53.166Z,2.33
2022-09-03T09:37:21.465Z,1.98
2022-09-03T09:39:58.190Z,1.65
2022-09-03T09:42:25.965Z,1.98
2022-09-03T09:44:53.854Z,1.90
2022-09-03T09:47:26.476Z,1.90
2022-09-03T09:49:55.045Z,2.10
2022-09-03T09:52:25.760Z,2.00
2022-09-03T09:54:54.464Z,2.33
2022-09-03T09:57:25.182Z,1.92
2022-09-03T10:00:04.181Z,2.28
2022-09-03T10:02:42.248Z,1.33
2022-09-03T10:05:14.674Z,2.22
2022-09-03T10:07:42.335Z,1.85
2022-09-03T10:10:17.008Z,2.10
2022-09-03T10:12:50.000Z,2.17
2022-09-03T10:15:24.619Z,2.00
2022-09-03T10:17:56.789Z,1.90
2022-09-03T10:20:31.722Z,2.10
2022-09-03T10:23:02.933Z,2.35
2022-09-03T10:25:35.803Z,2.45
2022-09-03T10:28:04.849Z,1.80
2022-09-03T10:30:40.063Z,1.67
2022-09-03T10:33:12.781Z,1.80
2022-09-03T10:35:45.778Z,2.05
2022-09-03T10:38:18.654Z,1.80
2022-09-03T10:40:51.015Z,2.60
2022-09-03T10:43:33.126Z,2.13
2022-09-03T10:46:06.247Z,2.00
2022-09-03T10:49:00.856Z,2.00
2022-09-03T10:51:34.003Z,3.50
2022-09-03T10:54:07.201Z,2.70
2022-09-03T10:56:40.653Z,2.20
2022-09-03T10:59:20.714Z,2.25
2022-09-03T11:01:53.753Z,2.28
2022-09-03T11:04:28.113Z,2.45
2022-09-03T11:06:56.364Z,2.53
2022-09-03T11:09:25.895Z,2.53
2022-09-03T11:11:57.124Z,2.40
2022-09-03T11:14:31.236Z,2.58
2022-09-03T11:17:01.199Z,0.90
2022-09-03T11:19:33.890Z,0.85
2022-09-03T11:22:01.686Z,0.65
2022-09-03T11:24:32.939Z,1.55
2022-09-03T11:27:05.146Z,1.33
2022-09-03T11:29:38.227Z,2.03
2022-09-03T11:32:08.615Z,1.63
2022-09-03T11:34:46.383Z,0.30
2022-09-03T11:37:19.040Z,1.08
2022-09-03T11:39:54.089Z,0.68
2022-09-03T11:42:31.829Z,0.95
2022-09-03T11:45:14.995Z,1.05
2022-09-03T11:47:43.460Z,1.10
2022-09-03T11:50:20.944Z,1.58
2022-09-03T11:52:49.133Z,1.30
2022-09-03T11:55:43.299Z,1.30
2022-09-03T11:58:18.623Z,1.50
2022-09-03T12:00:47.708Z,1.42
2022-09-03T12:03:17.959Z,1.27
2022-09-03T12:05:50.449Z,1.50
2022-09-03T12:08:28.314Z,1.38
2022-09-03T12:10:58.937Z,1.13
2022-09-03T12:13:34.417Z,1.38
2022-09-03T12:16:16.423Z,1.40
2022-09-03T12:18:45.650Z,1.20
2022-09-03T12:21:14.515Z,1.33
2022-09-03T12:23:43.198Z,1.45
2022-09-03T12:26:14.720Z,1.10
2022-09-03T12:28:44.515Z,1.10
2022-09-03T12:31:21.600Z,1.17
2022-09-03T12:33:54.016Z,1.40
2022-09-03T12:36:21.976Z,1.40
2022-09-03T12:39:10.792Z,1.50
2022-09-03T12:41:37.872Z,1.67
2022-09-03T12:44:05.769Z,1.20
2022-09-03T12:46:34.980Z,1.13
2022-09-03T12:51:57.418Z,0.88
2022-09-03T12:54:27.109Z,1.30
2022-09-03T12:56:57.529Z,1.15
2022-09-03T12:59:27.406Z,1.20
2022-09-03T13:01:59.798Z,0.98
2022-09-03T13:04:28.997Z,0.70
2022-09-03T13:07:00.954Z,0.98
2022-09-03T13:09:30.534Z,0.70
2022-09-03T13:11:59.130Z,0.52
2022-09-03T13:14:27.449Z,1.17
2022-09-03T13:17:11.247Z,0.68
2022-09-03T13:19:49.368Z,0.55
2022-09-03T13:22:23.076Z,1.10
2022-09-03T13:25:04.073Z,1.35
2022-09-03T13:27:35.692Z,1.17
2022-09-03T13:30:05.892Z,1.58
2022-09-03T13:32:41.057Z,1.67
2022-09-03T13:35:12.792Z,1.70
2022-09-03T13:37:41.460Z,1.30
2022-09-03T13:40:17.182Z,1.02
2022-09-03T13:42:46.718Z,1.40
2022-09-03T13:45:24.374Z,0.95
2022-09-03T13:48:15.256Z,1.20
2022-09-03T13:50:44.917Z,1.15
2022-09-03T13:53:16.338Z,1.77
2022-09-03T13:55:47.417Z,0.93
2022-09-03T13:58:21.066Z,1.40
2022-09-03T14:00:52.896Z,1.45
2022-09-03T14:03:26.989Z,1.27
2022-09-03T14:06:02.573Z,2.40
2022-09-03T14:08:33.645Z,1.90
2022-09-03T14:11:05.153Z,2.17
2022-09-03T14:13:45.185Z,2.13
2022-09-03T14:16:20.275Z,2.30
2022-09-03T14:18:52.906Z,2.15
2022-09-03T14:21:21.943Z,1.90
2022-09-03T14:23:52.764Z,2.65
2022-09-03T14:26:35.892Z,1.88
2022-09-03T14:29:08.265Z,2.67
2022-09-03T14:31:53.649Z,1.88
2022-09-03T14:34:28.260Z,2.85
2022-09-03T14:37:03.405Z,2.15
2022-09-03T14:39:34.258Z,2.60
2022-09-03T14:42:23.149Z,3.00
2022-09-03T14:45:01.714Z,2.30
2022-09-03T14:47:35.147Z,2.67
2022-09-03T14:50:25.428Z,2.65
2022-09-03T14:53:12.207Z,2.67
2022-09-03T14:55:50.418Z,2.40
2022-09-03T14:58:23.435Z,2.60
2022-09-03T15:00:54.544Z,2.70
2022-09-03T15:03:39.928Z,3.03
2022-09-03T15:06:12.172Z,2.78
2022-09-03T15:08:45.399Z,2.70
2022-09-03T15:11:16.624Z,2.72
2022-09-03T15:13:47.489Z,2.90
2022-09-03T15:16:24.281Z,2.60
2022-09-03T15:19:01.821Z,2.90
2022-09-03T15:21:37.777Z,3.22
2022-09-03T15:24:09.314Z,2.45
2022-09-03T15:26:43.673Z,2.65
2022-09-03T15:29:14.520Z,2.88
2022-09-03T15:31:49.118Z,2.67
2022-09-03T15:34:27.232Z,2.90
2022-09-03T15:36:56.612Z,2.80
2022-09-03T15:39:25.352Z,2.55
2022-09-03T15:41:56.381Z,2.40
2022-09-03T15:44:25.160Z,2.28
2022-09-03T15:46:56.629Z,3.05
2022-09-03T15:49:38.126Z,2.83
2022-09-03T15:52:18.250Z,2.65
2022-09-03T15:54:49.317Z,2.70
2022-09-03T15:57:19.805Z,2.63
2022-09-03T15:59:50.716Z,2.78
2022-09-03T16:02:21.650Z,2.63
2022-09-03T16:05:05.757Z,2.75
2022-09-03T16:07:43.150Z,3.33
2022-09-03T16:10:30.240Z,2.88
2022-09-03T16:13:02.120Z,3.13
2022-09-03T16:15:30.837Z,2.60
2022-09-03T16:18:02.598Z,2.65
2022-09-03T16:20:35.123Z,2.97
2022-09-03T16:23:06.725Z,2.80
2022-09-03T16:25:38.609Z,2.88
2022-09-03T16:28:14.750Z,2.53
2022-09-03T16:30:51.586Z,2.47
2022-09-03T16:33:24.240Z,2.92
2022-09-03T16:35:57.173Z,3.05
2022-09-03T16:38:30.682Z,2.80
2022-09-03T16:40:59.845Z,2.83
2022-09-03T16:43:47.309Z,3.20
2022-09-03T16:46:20.128Z,3.10
2022-09-03T16:48:54.995Z,3.45
2022-09-03T16:51:27.388Z,3.50
2022-09-03T16:54:08.430Z,3.15
2022-09-03T16:56:45.193Z,3.10
2022-09-03T16:59:21.142Z,2.60
2022-09-03T17:01:56.020Z,2.90
2022-09-03T17:04:33.728Z,2.88
2022-09-03T17:07:07.957Z,2.90
2022-09-03T17:09:43.265Z,3.20
2022-09-03T17:12:15.987Z,2.70
2022-09-03T17:14:52.969Z,1.55
2022-09-03T17:17:26.432Z,2.40
2022-09-03T17:19:57.916Z,2.83
2022-09-03T17:22:34.113Z,2.40
2022-09-03T17:25:06.974Z,2.40
2022-09-03T17:27:46.362Z,2.15
2022-09-03T17:30:19.997Z,2.50
2022-09-03T17:33:05.689Z,2.80
2022-09-03T17:35:38.087Z,2.50
2022-09-03T17:38:12.886Z,2.40
2022-09-03T17:40:46.547Z,2.50
2022-09-03T17:43:19.621Z,2.35
2022-09-03T17:45:52.970Z,2.17
2022-09-03T17:48:37.168Z,2.47
2022-09-03T17:51:06.700Z,1.92
2022-09-03T17:53:38.268Z,2.53
2022-09-03T17:56:09.636Z,2.53
2022-09-03T17:58:40.780Z,2.47
2022-09-03T18:01:16.360Z,2.40
2022-09-03T18:03:46.969Z,2.33
2022-09-03T18:06:21.757Z,2.15
2022-09-03T18:08:53.461Z,2.08
2022-09-03T18:11:24.411Z,1.95
2022-09-03T18:13:56.101Z,2.17
2022-09-03T18:16:26.823Z,3.03
2022-09-03T18:18:59.121Z,2.63
2022-09-03T18:21:45.941Z,2.33
2022-09-03T18:24:45.136Z,1.98
2022-09-03T18:27:39.966Z,1.27
2022-09-03T18:30:26.601Z,0.55
2022-09-03T18:33:11.838Z,0.80
2022-09-03T18:35:57.302Z,0.50
2022-09-03T18:38:44.457Z,1.75
2022-09-03T18:41:47.305Z,2.20
2022-09-03T18:44:41.961Z,0.63
2022-09-03T18:50:41.608Z,0.52
2022-09-03T18:53:30.850Z,1.13
2022-09-03T18:56:22.493Z,0.82
2022-09-03T18:59:15.252Z,2.00
2022-09-03T19:02:02.350Z,3.05
2022-09-03T19:04:55.236Z,2.80
2022-09-03T19:07:45.477Z,3.05
2022-09-03T19:10:32.877Z,3.13
2022-09-03T19:13:27.322Z,2.90
2022-09-03T19:16:18.597Z,3.50
2022-09-03T19:19:17.333Z,2.60
2022-09-03T19:22:06.491Z,2.95
2022-09-03T19:24:51.730Z,2.55
2022-09-03T19:28:00.148Z,2.83
2022-09-03T19:30:50.360Z,2.70
2022-09-03T19:33:39.659Z,3.00
2022-09-03T19:36:30.953Z,2.78
2022-09-03T19:39:21.185Z,3.00
2022-09-03T19:42:11.512Z,2.92
2022-09-03T19:45:02.244Z,2.78
2022-09-03T19:47:54.040Z,2.60
2022-09-03T19:50:40.682Z,3.13
2022-09-03T19:53:29.076Z,3.25
2022-09-03T19:56:15.008Z,3.63
2022-09-03T19:59:01.966Z,3.05
2022-09-03T20:01:49.850Z,2.80
2022-09-03T20:04:35.137Z,3.40
2022-09-03T20:07:22.052Z,3.22
2022-09-03T20:10:09.708Z,3.53
2022-09-03T20:12:38.909Z,3.22
2022-09-03T20:15:07.535Z,3.97
2022-09-03T20:17:39.476Z,3.58
2022-09-03T20:20:18.428Z,2.90
2022-09-03T20:22:56.753Z,3.00
2022-09-03T20:25:36.957Z,3.00
2022-09-03T20:28:09.180Z,3.80
2022-09-03T20:30:39.292Z,3.58
2022-09-03T20:33:12.977Z,3.30
2022-09-03T20:35:49.649Z,2.90
2022-09-03T20:38:26.314Z,3.25
2022-09-03T20:41:00.263Z,2.83
2022-09-03T20:43:36.488Z,3.72
2022-09-03T20:46:14.300Z,3.38
2022-09-03T20:48:45.985Z,3.47
2022-09-03T20:51:16.066Z,3.47
2022-09-03T20:53:54.858Z,3.15
2022-09-03T20:56:27.629Z,3.30
2022-09-03T20:58:59.663Z,3.50
2022-09-03T21:01:30.936Z,3.45
2022-09-03T21:04:04.696Z,3.35
2022-09-03T21:06:34.472Z,3.60
2022-09-03T21:09:08.905Z,3.35
2022-09-03T21:11:41.668Z,3.38
2022-09-03T21:14:14.688Z,3.58
2022-09-03T21:16:46.544Z,3.38
2022-09-03T21:19:18.709Z,3.50
2022-09-03T21:21:50.994Z,3.78
2022-09-03T21:24:20.975Z,3.58
2022-09-03T21:26:52.009Z,3.53
2022-09-03T21:29:22.669Z,3.22
2022-09-03T21:31:53.779Z,3.72
2022-09-03T21:34:25.368Z,3.55
2022-09-03T21:36:53.033Z,3.55
2022-09-03T21:39:21.711Z,3.55
2022-09-03T21:41:56.686Z,3.53
2022-09-03T21:44:40.804Z,3.97
2022-09-03T21:47:09.994Z,3.40
2022-09-03T21:49:39.686Z,3.30
2022-09-03T21:52:08.865Z,3.35
2022-09-03T21:54:36.821Z,3.38
2022-09-03T21:57:12.264Z,3.60
2022-09-03T21:59:49.820Z,3.33
2022-09-03T22:02:22.702Z,3.10
2022-09-03T22:04:50.766Z,3.17
2022-09-03T22:07:24.103Z,3.33
2022-09-03T22:09:54.493Z,3.15
2022-09-03T22:12:25.830Z,4.22
2022-09-03T22:14:55.597Z,3.80
2022-09-03T22:17:27.466Z,3.67
2022-09-03T22:19:55.102Z,3.30
2022-09-03T22:22:26.590Z,3.70
2022-09-03T22:25:01.997Z,3.38
2022-09-03T22:27:37.102Z,3.25
2022-09-03T22:30:07.109Z,3.45
2022-09-03T22:32:40.552Z,3.53
2022-09-03T22:35:20.923Z,3.20
2022-09-03T22:37:57.484Z,3.83
2022-09-03T22:40:27.084Z,3.13
2022-09-03T22:43:01.829Z,3.38
2022-09-03T22:45:40.276Z,3.47
2022-09-03T22:48:13.455Z,3.38
2022-09-03T22:50:45.929Z,3.63
2022-09-03T22:53:18.766Z,3.53
2022-09-03T22:55:47.562Z,3.83
2022-09-03T22:58:18.927Z,3.17
2022-09-03T23:00:48.110Z,3.22
2022-09-03T23:03:17.504Z,3.38
2022-09-03T23:05:45.893Z,3.30
2022-09-03T23:08:15.605Z,3.40
2022-09-03T23:11:02.660Z,2.80
2022-09-03T23:13:34.832Z,3.10
2022-09-03T23:16:06.510Z,3.05
2022-09-03T23:18:35.662Z,2.88
2022-09-03T23:21:07.855Z,3.00
2022-09-03T23:23:36.768Z,3.17
2022-09-03T23:26:13.513Z,3.08
2022-09-03T23:28:45.208Z,3.22
2022-09-03T23:31:17.117Z,3.25
2022-09-03T23:33:46.111Z,3.22
2022-09-03T23:36:31.631Z,3.20
2022-09-03T23:39:10.413Z,2.88
2022-09-03T23:41:47.388Z,3.10
2022-09-03T23:44:30.987Z,3.25
2022-09-03T23:47:04.659Z,3.80
2022-09-03T23:49:37.337Z,3.50
2022-09-03T23:52:20.727Z,3.30
2022-09-03T23:54:49.313Z,3.22
2022-09-03T23:57:22.752Z,3.05
